sensor_id;sensor_type;location;lat;lon;timestamp;P1;durP1;ratioP1;P2;durP2;ratioP2
84082;SDS011;74174;52.224;6.878;2024-03-08T00:01:10;30.98;;;12.75;;
84082;SDS011;74174;52.224;6.878;2024-03-08T00:03:36;32.53;;;12.77;;
84082;SDS011;74174;52.224;6.878;2024-03-08T00:06:02;31.55;;;12.40;;
84082;SDS011;74174;52.224;6.878;2024-03-08T00:08:27;35.45;;;11.93;;
84082;SDS011;74174;52.224;6.878;2024-03-08T00:10:54;31.38;;;12.38;;
84082;SDS011;74174;52.224;6.878;2024-03-08T00:13:19;33.70;;;13.43;;
84082;SDS011;74174;52.224;6.878;2024-03-08T00:15:46;30.70;;;12.68;;
84082;SDS011;74174;52.224;6.878;2024-03-08T00:18:12;32.92;;;12.98;;
84082;SDS011;74174;52.224;6.878;2024-03-08T00:20:38;31.20;;;11.50;;
84082;SDS011;74174;52.224;6.878;2024-03-08T00:23:04;31.88;;;11.77;;
84082;SDS011;74174;52.224;6.878;2024-03-08T00:25:29;32.25;;;12.63;;
84082;SDS011;74174;52.224;6.878;2024-03-08T00:27:55;29.20;;;12.77;;
84082;SDS011;74174;52.224;6.878;2024-03-08T00:30:24;30.13;;;12.00;;
84082;SDS011;74174;52.224;6.878;2024-03-08T00:32:50;30.00;;;13.65;;
84082;SDS011;74174;52.224;6.878;2024-03-08T00:35:15;30.80;;;12.75;;
84082;SDS011;74174;52.224;6.878;2024-03-08T00:37:41;31.73;;;13.48;;
84082;SDS011;74174;52.224;6.878;2024-03-08T00:40:07;28.85;;;12.35;;
84082;SDS011;74174;52.224;6.878;2024-03-08T00:42:34;32.25;;;12.48;;
84082;SDS011;74174;52.224;6.878;2024-03-08T00:45:00;28.25;;;13.25;;
84082;SDS011;74174;52.224;6.878;2024-03-08T00:47:26;34.53;;;13.95;;
84082;SDS011;74174;52.224;6.878;2024-03-08T00:49:53;27.45;;;11.57;;
84082;SDS011;74174;52.224;6.878;2024-03-08T00:52:18;30.58;;;12.70;;
84082;SDS011;74174;52.224;6.878;2024-03-08T00:54:44;27.85;;;12.00;;
84082;SDS011;74174;52.224;6.878;2024-03-08T00:57:10;35.60;;;13.40;;
84082;SDS011;74174;52.224;6.878;2024-03-08T00:59:37;29.10;;;12.27;;
84082;SDS011;74174;52.224;6.878;2024-03-08T01:02:03;31.77;;;14.07;;
84082;SDS011;74174;52.224;6.878;2024-03-08T01:04:29;32.58;;;13.02;;
84082;SDS011;74174;52.224;6.878;2024-03-08T01:06:58;34.25;;;13.27;;
84082;SDS011;74174;52.224;6.878;2024-03-08T01:09:24;29.90;;;11.93;;
84082;SDS011;74174;52.224;6.878;2024-03-08T01:11:51;31.23;;;13.43;;
84082;SDS011;74174;52.224;6.878;2024-03-08T01:14:22;31.40;;;12.30;;
84082;SDS011;74174;52.224;6.878;2024-03-08T01:16:49;27.45;;;11.95;;
84082;SDS011;74174;52.224;6.878;2024-03-08T01:19:14;32.75;;;12.35;;
84082;SDS011;74174;52.224;6.878;2024-03-08T01:21:40;29.25;;;12.00;;
84082;SDS011;74174;52.224;6.878;2024-03-08T01:24:06;28.25;;;12.20;;
84082;SDS011;74174;52.224;6.878;2024-03-08T01:26:32;29.83;;;12.43;;
84082;SDS011;74174;52.224;6.878;2024-03-08T01:29:00;31.23;;;12.55;;
84082;SDS011;74174;52.224;6.878;2024-03-08T01:31:28;27.10;;;12.38;;
84082;SDS011;74174;52.224;6.878;2024-03-08T01:33:55;26.42;;;11.77;;
84082;SDS011;74174;52.224;6.878;2024-03-08T01:36:21;31.75;;;12.73;;
84082;SDS011;74174;52.224;6.878;2024-03-08T01:38:46;33.65;;;13.73;;
84082;SDS011;74174;52.224;6.878;2024-03-08T01:41:12;33.53;;;13.15;;
84082;SDS011;74174;52.224;6.878;2024-03-08T01:43:38;30.85;;;12.32;;
84082;SDS011;74174;52.224;6.878;2024-03-08T01:46:04;31.60;;;12.85;;
84082;SDS011;74174;52.224;6.878;2024-03-08T01:48:30;28.33;;;11.98;;
84082;SDS011;74174;52.224;6.878;2024-03-08T01:50:58;28.58;;;11.93;;
84082;SDS011;74174;52.224;6.878;2024-03-08T01:53:27;29.27;;;11.63;;
84082;SDS011;74174;52.224;6.878;2024-03-08T01:55:56;33.85;;;13.93;;
84082;SDS011;74174;52.224;6.878;2024-03-08T01:58:23;29.30;;;12.80;;
84082;SDS011;74174;52.224;6.878;2024-03-08T02:00:49;26.58;;;12.20;;
84082;SDS011;74174;52.224;6.878;2024-03-08T02:03:17;26.33;;;11.68;;
84082;SDS011;74174;52.224;6.878;2024-03-08T02:05:43;29.88;;;12.93;;
84082;SDS011;74174;52.224;6.878;2024-03-08T02:08:09;31.85;;;14.80;;
84082;SDS011;74174;52.224;6.878;2024-03-08T02:10:43;26.60;;;10.98;;
84082;SDS011;74174;52.224;6.878;2024-03-08T02:13:10;27.02;;;11.98;;
84082;SDS011;74174;52.224;6.878;2024-03-08T02:15:51;29.95;;;13.85;;
84082;SDS011;74174;52.224;6.878;2024-03-08T02:18:25;28.05;;;12.00;;
84082;SDS011;74174;52.224;6.878;2024-03-08T02:21:01;29.52;;;13.05;;
84082;SDS011;74174;52.224;6.878;2024-03-08T02:23:27;27.25;;;12.00;;
84082;SDS011;74174;52.224;6.878;2024-03-08T02:25:54;25.60;;;11.15;;
84082;SDS011;74174;52.224;6.878;2024-03-08T02:28:21;28.20;;;12.15;;
84082;SDS011;74174;52.224;6.878;2024-03-08T02:30:47;28.27;;;12.52;;
84082;SDS011;74174;52.224;6.878;2024-03-08T02:33:14;30.27;;;12.40;;
84082;SDS011;74174;52.224;6.878;2024-03-08T02:35:44;30.00;;;13.18;;
84082;SDS011;74174;52.224;6.878;2024-03-08T02:38:17;30.17;;;12.88;;
84082;SDS011;74174;52.224;6.878;2024-03-08T02:40:44;29.40;;;13.27;;
84082;SDS011;74174;52.224;6.878;2024-03-08T02:43:12;26.98;;;13.00;;
84082;SDS011;74174;52.224;6.878;2024-03-08T02:45:42;29.35;;;13.02;;
84082;SDS011;74174;52.224;6.878;2024-03-08T02:48:09;32.92;;;13.80;;
84082;SDS011;74174;52.224;6.878;2024-03-08T02:50:34;30.52;;;13.30;;
84082;SDS011;74174;52.224;6.878;2024-03-08T02:53:01;25.70;;;11.93;;
84082;SDS011;74174;52.224;6.878;2024-03-08T02:55:27;27.95;;;11.35;;
84082;SDS011;74174;52.224;6.878;2024-03-08T02:57:53;30.45;;;12.75;;
84082;SDS011;74174;52.224;6.878;2024-03-08T03:00:21;28.65;;;13.07;;
84082;SDS011;74174;52.224;6.878;2024-03-08T03:02:49;33.33;;;13.27;;
84082;SDS011;74174;52.224;6.878;2024-03-08T03:05:21;25.95;;;12.30;;
84082;SDS011;74174;52.224;6.878;2024-03-08T03:07:50;32.42;;;13.18;;
84082;SDS011;74174;52.224;6.878;2024-03-08T03:10:18;33.60;;;14.52;;
84082;SDS011;74174;52.224;6.878;2024-03-08T03:12:46;26.60;;;11.73;;
84082;SDS011;74174;52.224;6.878;2024-03-08T03:15:16;31.15;;;12.90;;
84082;SDS011;74174;52.224;6.878;2024-03-08T03:17:46;28.52;;;12.85;;
84082;SDS011;74174;52.224;6.878;2024-03-08T03:20:12;28.15;;;12.35;;
84082;SDS011;74174;52.224;6.878;2024-03-08T03:22:39;29.30;;;13.02;;
84082;SDS011;74174;52.224;6.878;2024-03-08T03:25:12;24.35;;;12.05;;
84082;SDS011;74174;52.224;6.878;2024-03-08T03:27:37;31.00;;;12.27;;
84082;SDS011;74174;52.224;6.878;2024-03-08T03:30:04;31.08;;;12.85;;
84082;SDS011;74174;52.224;6.878;2024-03-08T03:32:46;29.98;;;13.20;;
84082;SDS011;74174;52.224;6.878;2024-03-08T03:35:17;32.60;;;13.63;;
84082;SDS011;74174;52.224;6.878;2024-03-08T03:37:43;34.67;;;13.75;;
84082;SDS011;74174;52.224;6.878;2024-03-08T03:40:16;29.30;;;13.15;;
84082;SDS011;74174;52.224;6.878;2024-03-08T03:42:43;26.30;;;12.88;;
84082;SDS011;74174;52.224;6.878;2024-03-08T03:45:14;26.05;;;12.40;;
84082;SDS011;74174;52.224;6.878;2024-03-08T03:47:46;30.38;;;12.05;;
84082;SDS011;74174;52.224;6.878;2024-03-08T03:50:11;29.80;;;14.55;;
84082;SDS011;74174;52.224;6.878;2024-03-08T03:52:37;30.20;;;12.90;;
84082;SDS011;74174;52.224;6.878;2024-03-08T03:55:04;31.42;;;12.70;;
84082;SDS011;74174;52.224;6.878;2024-03-08T03:57:30;29.35;;;12.43;;
84082;SDS011;74174;52.224;6.878;2024-03-08T03:59:55;35.80;;;14.10;;
84082;SDS011;74174;52.224;6.878;2024-03-08T04:02:24;28.17;;;14.38;;
84082;SDS011;74174;52.224;6.878;2024-03-08T04:04:52;30.98;;;13.38;;
84082;SDS011;74174;52.224;6.878;2024-03-08T04:07:19;29.08;;;12.90;;
84082;SDS011;74174;52.224;6.878;2024-03-08T04:09:45;29.80;;;12.63;;
84082;SDS011;74174;52.224;6.878;2024-03-08T04:12:11;31.45;;;13.27;;
84082;SDS011;74174;52.224;6.878;2024-03-08T04:14:41;31.45;;;13.82;;
84082;SDS011;74174;52.224;6.878;2024-03-08T04:17:07;31.27;;;13.80;;
84082;SDS011;74174;52.224;6.878;2024-03-08T04:19:35;31.30;;;13.50;;
84082;SDS011;74174;52.224;6.878;2024-03-08T04:22:00;30.00;;;12.40;;
84082;SDS011;74174;52.224;6.878;2024-03-08T04:24:27;31.50;;;13.20;;
84082;SDS011;74174;52.224;6.878;2024-03-08T04:26:52;31.48;;;13.57;;
84082;SDS011;74174;52.224;6.878;2024-03-08T04:29:18;31.50;;;14.65;;
84082;SDS011;74174;52.224;6.878;2024-03-08T04:31:44;27.73;;;13.30;;
84082;SDS011;74174;52.224;6.878;2024-03-08T04:34:09;27.92;;;13.60;;
84082;SDS011;74174;52.224;6.878;2024-03-08T04:36:35;28.10;;;13.45;;
84082;SDS011;74174;52.224;6.878;2024-03-08T04:39:02;32.40;;;12.90;;
84082;SDS011;74174;52.224;6.878;2024-03-08T04:41:27;32.55;;;15.15;;
84082;SDS011;74174;52.224;6.878;2024-03-08T04:43:55;31.10;;;14.02;;
84082;SDS011;74174;52.224;6.878;2024-03-08T04:46:23;35.40;;;13.93;;
84082;SDS011;74174;52.224;6.878;2024-03-08T04:48:49;32.40;;;13.85;;
84082;SDS011;74174;52.224;6.878;2024-03-08T04:51:14;32.05;;;14.43;;
84082;SDS011;74174;52.224;6.878;2024-03-08T04:53:40;29.45;;;13.35;;
84082;SDS011;74174;52.224;6.878;2024-03-08T04:56:06;29.83;;;14.27;;
84082;SDS011;74174;52.224;6.878;2024-03-08T04:58:33;34.58;;;14.32;;
84082;SDS011;74174;52.224;6.878;2024-03-08T05:01:01;29.73;;;13.70;;
84082;SDS011;74174;52.224;6.878;2024-03-08T05:03:26;31.77;;;14.45;;
84082;SDS011;74174;52.224;6.878;2024-03-08T05:05:52;32.10;;;14.02;;
84082;SDS011;74174;52.224;6.878;2024-03-08T05:08:18;31.77;;;13.30;;
84082;SDS011;74174;52.224;6.878;2024-03-08T05:10:44;30.23;;;12.90;;
84082;SDS011;74174;52.224;6.878;2024-03-08T05:13:10;30.27;;;14.05;;
84082;SDS011;74174;52.224;6.878;2024-03-08T05:15:35;29.80;;;14.05;;
84082;SDS011;74174;52.224;6.878;2024-03-08T05:18:02;31.33;;;14.10;;
84082;SDS011;74174;52.224;6.878;2024-03-08T05:20:29;34.38;;;14.38;;
84082;SDS011;74174;52.224;6.878;2024-03-08T05:22:55;32.00;;;15.18;;
84082;SDS011;74174;52.224;6.878;2024-03-08T05:25:23;33.65;;;14.15;;
84082;SDS011;74174;52.224;6.878;2024-03-08T05:27:50;32.58;;;15.10;;
84082;SDS011;74174;52.224;6.878;2024-03-08T05:30:16;34.13;;;15.20;;
84082;SDS011;74174;52.224;6.878;2024-03-08T05:32:41;32.70;;;14.48;;
84082;SDS011;74174;52.224;6.878;2024-03-08T05:35:10;39.22;;;15.55;;
84082;SDS011;74174;52.224;6.878;2024-03-08T05:37:37;33.75;;;14.02;;
84082;SDS011;74174;52.224;6.878;2024-03-08T05:40:04;32.90;;;15.13;;
84082;SDS011;74174;52.224;6.878;2024-03-08T05:42:34;34.95;;;14.95;;
84082;SDS011;74174;52.224;6.878;2024-03-08T05:45:00;34.55;;;14.80;;
84082;SDS011;74174;52.224;6.878;2024-03-08T05:47:25;33.85;;;15.27;;
84082;SDS011;74174;52.224;6.878;2024-03-08T05:49:51;34.13;;;15.32;;
84082;SDS011;74174;52.224;6.878;2024-03-08T05:52:19;35.15;;;15.93;;
84082;SDS011;74174;52.224;6.878;2024-03-08T05:54:45;31.35;;;14.35;;
84082;SDS011;74174;52.224;6.878;2024-03-08T05:57:12;37.00;;;14.98;;
84082;SDS011;74174;52.224;6.878;2024-03-08T05:59:38;33.85;;;14.27;;
84082;SDS011;74174;52.224;6.878;2024-03-08T06:02:04;34.63;;;15.35;;
84082;SDS011;74174;52.224;6.878;2024-03-08T06:04:30;36.67;;;16.02;;
84082;SDS011;74174;52.224;6.878;2024-03-08T06:06:56;33.72;;;14.45;;
84082;SDS011;74174;52.224;6.878;2024-03-08T06:09:23;35.50;;;15.35;;
84082;SDS011;74174;52.224;6.878;2024-03-08T06:11:51;34.65;;;15.82;;
84082;SDS011;74174;52.224;6.878;2024-03-08T06:14:19;31.92;;;14.65;;
84082;SDS011;74174;52.224;6.878;2024-03-08T06:16:45;35.63;;;15.38;;
84082;SDS011;74174;52.224;6.878;2024-03-08T06:19:11;32.97;;;14.32;;
84082;SDS011;74174;52.224;6.878;2024-03-08T06:21:37;32.80;;;14.20;;
84082;SDS011;74174;52.224;6.878;2024-03-08T06:24:03;36.72;;;14.52;;
84082;SDS011;74174;52.224;6.878;2024-03-08T06:26:30;32.60;;;13.85;;
84082;SDS011;74174;52.224;6.878;2024-03-08T06:28:56;35.20;;;15.45;;
84082;SDS011;74174;52.224;6.878;2024-03-08T06:31:22;35.75;;;14.93;;
84082;SDS011;74174;52.224;6.878;2024-03-08T06:33:48;32.97;;;14.55;;
84082;SDS011;74174;52.224;6.878;2024-03-08T06:36:17;32.00;;;14.10;;
84082;SDS011;74174;52.224;6.878;2024-03-08T06:38:49;33.55;;;15.80;;
84082;SDS011;74174;52.224;6.878;2024-03-08T06:41:14;34.45;;;15.73;;
84082;SDS011;74174;52.224;6.878;2024-03-08T06:43:41;33.75;;;14.80;;
84082;SDS011;74174;52.224;6.878;2024-03-08T06:46:07;37.10;;;14.75;;
84082;SDS011;74174;52.224;6.878;2024-03-08T06:48:33;32.92;;;14.95;;
84082;SDS011;74174;52.224;6.878;2024-03-08T06:51:00;30.92;;;14.10;;
84082;SDS011;74174;52.224;6.878;2024-03-08T06:53:25;34.10;;;14.70;;
84082;SDS011;74174;52.224;6.878;2024-03-08T06:55:51;33.22;;;14.40;;
84082;SDS011;74174;52.224;6.878;2024-03-08T06:58:16;36.67;;;17.08;;
84082;SDS011;74174;52.224;6.878;2024-03-08T07:00:42;35.25;;;16.00;;
84082;SDS011;74174;52.224;6.878;2024-03-08T07:03:07;32.53;;;14.70;;
84082;SDS011;74174;52.224;6.878;2024-03-08T07:05:37;38.88;;;16.20;;
84082;SDS011;74174;52.224;6.878;2024-03-08T07:08:05;33.83;;;14.27;;
84082;SDS011;74174;52.224;6.878;2024-03-08T07:10:32;30.90;;;12.85;;
84082;SDS011;74174;52.224;6.878;2024-03-08T07:12:57;38.28;;;15.38;;
84082;SDS011;74174;52.224;6.878;2024-03-08T07:15:23;35.47;;;15.00;;
84082;SDS011;74174;52.224;6.878;2024-03-08T07:17:48;34.92;;;14.88;;
84082;SDS011;74174;52.224;6.878;2024-03-08T07:20:14;32.85;;;13.38;;
84082;SDS011;74174;52.224;6.878;2024-03-08T07:22:44;32.75;;;14.52;;
84082;SDS011;74174;52.224;6.878;2024-03-08T07:25:12;35.03;;;15.57;;
84082;SDS011;74174;52.224;6.878;2024-03-08T07:27:49;37.53;;;16.38;;
84082;SDS011;74174;52.224;6.878;2024-03-08T07:30:23;32.13;;;14.40;;
84082;SDS011;74174;52.224;6.878;2024-03-08T07:33:08;32.50;;;15.52;;
84082;SDS011;74174;52.224;6.878;2024-03-08T07:35:36;33.17;;;15.20;;
84082;SDS011;74174;52.224;6.878;2024-03-08T07:38:09;33.70;;;14.70;;
84082;SDS011;74174;52.224;6.878;2024-03-08T07:40:38;33.63;;;13.70;;
84082;SDS011;74174;52.224;6.878;2024-03-08T07:43:08;33.22;;;16.02;;
84082;SDS011;74174;52.224;6.878;2024-03-08T07:45:35;36.72;;;15.30;;
84082;SDS011;74174;52.224;6.878;2024-03-08T07:48:01;31.10;;;14.32;;
84082;SDS011;74174;52.224;6.878;2024-03-08T07:50:28;36.60;;;16.25;;
84082;SDS011;74174;52.224;6.878;2024-03-08T07:52:55;33.22;;;15.43;;
84082;SDS011;74174;52.224;6.878;2024-03-08T07:55:20;35.90;;;13.95;;
84082;SDS011;74174;52.224;6.878;2024-03-08T07:57:49;36.17;;;16.70;;
84082;SDS011;74174;52.224;6.878;2024-03-08T08:00:15;35.65;;;14.82;;
84082;SDS011;74174;52.224;6.878;2024-03-08T08:02:46;30.90;;;14.13;;
84082;SDS011;74174;52.224;6.878;2024-03-08T08:05:11;32.80;;;14.98;;
84082;SDS011;74174;52.224;6.878;2024-03-08T08:07:38;33.40;;;14.25;;
84082;SDS011;74174;52.224;6.878;2024-03-08T08:10:05;40.42;;;15.73;;
84082;SDS011;74174;52.224;6.878;2024-03-08T08:12:31;35.63;;;14.70;;
84082;SDS011;74174;52.224;6.878;2024-03-08T08:15:00;33.38;;;13.20;;
84082;SDS011;74174;52.224;6.878;2024-03-08T08:17:26;36.97;;;15.68;;
84082;SDS011;74174;52.224;6.878;2024-03-08T08:19:51;35.90;;;15.82;;
84082;SDS011;74174;52.224;6.878;2024-03-08T08:22:17;33.72;;;14.20;;
84082;SDS011;74174;52.224;6.878;2024-03-08T08:24:43;31.83;;;14.07;;
84082;SDS011;74174;52.224;6.878;2024-03-08T08:27:08;32.83;;;15.60;;
84082;SDS011;74174;52.224;6.878;2024-03-08T08:29:34;35.03;;;14.10;;
84082;SDS011;74174;52.224;6.878;2024-03-08T08:32:00;31.67;;;13.90;;
84082;SDS011;74174;52.224;6.878;2024-03-08T08:34:25;35.47;;;15.82;;
84082;SDS011;74174;52.224;6.878;2024-03-08T08:36:53;32.38;;;15.73;;
84082;SDS011;74174;52.224;6.878;2024-03-08T08:39:18;31.05;;;16.17;;
84082;SDS011;74174;52.224;6.878;2024-03-08T08:41:44;32.90;;;14.88;;
84082;SDS011;74174;52.224;6.878;2024-03-08T08:44:09;33.30;;;16.02;;
84082;SDS011;74174;52.224;6.878;2024-03-08T08:46:38;28.20;;;14.65;;
84082;SDS011;74174;52.224;6.878;2024-03-08T08:49:05;31.75;;;14.73;;
84082;SDS011;74174;52.224;6.878;2024-03-08T08:51:35;29.73;;;13.77;;
84082;SDS011;74174;52.224;6.878;2024-03-08T08:54:01;30.90;;;13.52;;
84082;SDS011;74174;52.224;6.878;2024-03-08T08:56:27;30.08;;;15.70;;
84082;SDS011;74174;52.224;6.878;2024-03-08T08:58:53;27.98;;;13.93;;
84082;SDS011;74174;52.224;6.878;2024-03-08T09:01:19;31.60;;;15.18;;
84082;SDS011;74174;52.224;6.878;2024-03-08T09:03:45;31.00;;;14.50;;
84082;SDS011;74174;52.224;6.878;2024-03-08T09:06:15;31.90;;;14.70;;
84082;SDS011;74174;52.224;6.878;2024-03-08T09:08:42;30.48;;;14.70;;
84082;SDS011;74174;52.224;6.878;2024-03-08T09:11:09;30.10;;;14.93;;
84082;SDS011;74174;52.224;6.878;2024-03-08T09:13:35;31.90;;;14.38;;
84082;SDS011;74174;52.224;6.878;2024-03-08T09:16:01;32.28;;;14.13;;
84082;SDS011;74174;52.224;6.878;2024-03-08T09:18:30;30.02;;;14.20;;
84082;SDS011;74174;52.224;6.878;2024-03-08T09:20:57;29.70;;;14.70;;
84082;SDS011;74174;52.224;6.878;2024-03-08T09:23:23;31.90;;;14.75;;
84082;SDS011;74174;52.224;6.878;2024-03-08T09:25:49;31.55;;;14.45;;
84082;SDS011;74174;52.224;6.878;2024-03-08T09:28:14;31.02;;;15.98;;
84082;SDS011;74174;52.224;6.878;2024-03-08T09:30:41;31.08;;;14.52;;
84082;SDS011;74174;52.224;6.878;2024-03-08T09:33:06;27.92;;;14.13;;
84082;SDS011;74174;52.224;6.878;2024-03-08T09:35:32;32.63;;;14.93;;
84082;SDS011;74174;52.224;6.878;2024-03-08T09:37:58;28.98;;;13.65;;
84082;SDS011;74174;52.224;6.878;2024-03-08T09:40:23;28.38;;;14.55;;
84082;SDS011;74174;52.224;6.878;2024-03-08T09:42:50;29.48;;;14.55;;
84082;SDS011;74174;52.224;6.878;2024-03-08T09:45:17;29.48;;;14.55;;
84082;SDS011;74174;52.224;6.878;2024-03-08T09:47:47;27.40;;;13.45;;
84082;SDS011;74174;52.224;6.878;2024-03-08T09:50:13;29.88;;;13.95;;
84082;SDS011;74174;52.224;6.878;2024-03-08T09:52:39;31.08;;;14.88;;
84082;SDS011;74174;52.224;6.878;2024-03-08T09:55:05;26.15;;;14.27;;
84082;SDS011;74174;52.224;6.878;2024-03-08T09:57:32;31.48;;;15.38;;
84082;SDS011;74174;52.224;6.878;2024-03-08T09:59:59;26.40;;;13.38;;
84082;SDS011;74174;52.224;6.878;2024-03-08T10:02:24;28.25;;;14.45;;
84082;SDS011;74174;52.224;6.878;2024-03-08T10:04:51;26.05;;;14.02;;
84082;SDS011;74174;52.224;6.878;2024-03-08T10:07:18;29.63;;;14.82;;
84082;SDS011;74174;52.224;6.878;2024-03-08T10:09:44;28.15;;;14.15;;
84082;SDS011;74174;52.224;6.878;2024-03-08T10:12:15;27.30;;;14.13;;
84082;SDS011;74174;52.224;6.878;2024-03-08T10:14:41;27.55;;;13.43;;
84082;SDS011;74174;52.224;6.878;2024-03-08T10:17:07;31.00;;;13.48;;
84082;SDS011;74174;52.224;6.878;2024-03-08T10:19:32;27.95;;;13.30;;
84082;SDS011;74174;52.224;6.878;2024-03-08T10:21:59;27.33;;;13.90;;
84082;SDS011;74174;52.224;6.878;2024-03-08T10:24:25;28.70;;;13.63;;
84082;SDS011;74174;52.224;6.878;2024-03-08T10:26:51;29.42;;;14.35;;
84082;SDS011;74174;52.224;6.878;2024-03-08T10:29:18;29.35;;;14.57;;
84082;SDS011;74174;52.224;6.878;2024-03-08T10:31:43;28.38;;;13.68;;
84082;SDS011;74174;52.224;6.878;2024-03-08T10:34:10;29.52;;;14.30;;
84082;SDS011;74174;52.224;6.878;2024-03-08T10:36:35;28.48;;;13.95;;
84082;SDS011;74174;52.224;6.878;2024-03-08T10:39:03;29.30;;;13.70;;
84082;SDS011;74174;52.224;6.878;2024-03-08T10:41:56;29.40;;;14.13;;
84082;SDS011;74174;52.224;6.878;2024-03-08T10:52:14;26.85;;;12.55;;
84082;SDS011;74174;52.224;6.878;2024-03-08T10:54:42;24.20;;;12.60;;
84082;SDS011;74174;52.224;6.878;2024-03-08T10:57:10;27.00;;;13.73;;
84082;SDS011;74174;52.224;6.878;2024-03-08T10:59:37;27.02;;;13.75;;
84082;SDS011;74174;52.224;6.878;2024-03-08T11:02:04;25.02;;;13.45;;
84082;SDS011;74174;52.224;6.878;2024-03-08T11:04:33;24.42;;;13.00;;
84082;SDS011;74174;52.224;6.878;2024-03-08T11:07:02;26.90;;;12.75;;
84082;SDS011;74174;52.224;6.878;2024-03-08T11:09:31;25.27;;;12.63;;
84082;SDS011;74174;52.224;6.878;2024-03-08T11:14:56;26.55;;;13.20;;
84082;SDS011;74174;52.224;6.878;2024-03-08T11:17:26;30.20;;;14.80;;
84082;SDS011;74174;52.224;6.878;2024-03-08T11:20:12;22.75;;;13.38;;
84082;SDS011;74174;52.224;6.878;2024-03-08T11:22:42;23.35;;;12.45;;
84082;SDS011;74174;52.224;6.878;2024-03-08T11:28:08;22.02;;;12.20;;
84082;SDS011;74174;52.224;6.878;2024-03-08T11:30:43;20.58;;;12.10;;
84082;SDS011;74174;52.224;6.878;2024-03-08T11:33:34;22.98;;;13.35;;
84082;SDS011;74174;52.224;6.878;2024-03-08T11:38:47;24.45;;;13.20;;
84082;SDS011;74174;52.224;6.878;2024-03-08T11:41:16;25.73;;;13.88;;
84082;SDS011;74174;52.224;6.878;2024-03-08T11:43:46;21.48;;;11.55;;
84082;SDS011;74174;52.224;6.878;2024-03-08T11:46:12;21.88;;;12.05;;
84082;SDS011;74174;52.224;6.878;2024-03-08T11:48:43;22.80;;;12.95;;
84082;SDS011;74174;52.224;6.878;2024-03-08T11:51:12;19.33;;;11.60;;
84082;SDS011;74174;52.224;6.878;2024-03-08T11:53:39;20.45;;;11.82;;
84082;SDS011;74174;52.224;6.878;2024-03-08T11:56:10;20.08;;;11.32;;
84082;SDS011;74174;52.224;6.878;2024-03-08T11:58:38;20.95;;;12.45;;
84082;SDS011;74174;52.224;6.878;2024-03-08T12:03:56;20.60;;;11.75;;
84082;SDS011;74174;52.224;6.878;2024-03-08T12:06:24;18.35;;;10.77;;
84082;SDS011;74174;52.224;6.878;2024-03-08T12:08:50;20.50;;;12.25;;
84082;SDS011;74174;52.224;6.878;2024-03-08T12:11:19;18.17;;;10.48;;
84082;SDS011;74174;52.224;6.878;2024-03-08T12:13:50;18.35;;;10.63;;
84082;SDS011;74174;52.224;6.878;2024-03-08T12:16:16;18.08;;;10.65;;
84082;SDS011;74174;52.224;6.878;2024-03-08T12:18:50;21.50;;;11.48;;
84082;SDS011;74174;52.224;6.878;2024-03-08T12:21:17;18.77;;;11.15;;
84082;SDS011;74174;52.224;6.878;2024-03-08T12:23:47;20.65;;;10.73;;
84082;SDS011;74174;52.224;6.878;2024-03-08T12:26:35;20.63;;;11.10;;
84082;SDS011;74174;52.224;6.878;2024-03-08T12:29:21;19.65;;;10.15;;
84082;SDS011;74174;52.224;6.878;2024-03-08T12:31:52;20.73;;;10.55;;
84082;SDS011;74174;52.224;6.878;2024-03-08T12:34:21;18.45;;;10.93;;
84082;SDS011;74174;52.224;6.878;2024-03-08T12:36:47;19.55;;;10.48;;
84082;SDS011;74174;52.224;6.878;2024-03-08T12:39:18;17.73;;;10.65;;
84082;SDS011;74174;52.224;6.878;2024-03-08T12:41:48;18.45;;;11.00;;
84082;SDS011;74174;52.224;6.878;2024-03-08T12:44:17;19.85;;;11.15;;
84082;SDS011;74174;52.224;6.878;2024-03-08T12:46:44;19.13;;;11.18;;
84082;SDS011;74174;52.224;6.878;2024-03-08T12:49:10;20.60;;;11.15;;
84082;SDS011;74174;52.224;6.878;2024-03-08T12:51:37;19.08;;;11.65;;
84082;SDS011;74174;52.224;6.878;2024-03-08T12:54:04;16.73;;;9.70;;
84082;SDS011;74174;52.224;6.878;2024-03-08T12:56:32;17.58;;;10.25;;
84082;SDS011;74174;52.224;6.878;2024-03-08T12:59:00;19.42;;;11.20;;
84082;SDS011;74174;52.224;6.878;2024-03-08T13:01:26;18.48;;;10.82;;
84082;SDS011;74174;52.224;6.878;2024-03-08T13:03:52;20.08;;;11.57;;
84082;SDS011;74174;52.224;6.878;2024-03-08T13:06:19;17.33;;;10.98;;
84082;SDS011;74174;52.224;6.878;2024-03-08T13:08:49;19.80;;;10.30;;
84082;SDS011;74174;52.224;6.878;2024-03-08T13:11:19;19.55;;;11.20;;
84082;SDS011;74174;52.224;6.878;2024-03-08T13:13:45;17.15;;;10.48;;
84082;SDS011;74174;52.224;6.878;2024-03-08T13:16:11;15.93;;;9.82;;
84082;SDS011;74174;52.224;6.878;2024-03-08T13:18:40;19.60;;;11.38;;
84082;SDS011;74174;52.224;6.878;2024-03-08T13:21:09;19.95;;;11.02;;
84082;SDS011;74174;52.224;6.878;2024-03-08T13:23:41;18.73;;;11.18;;
84082;SDS011;74174;52.224;6.878;2024-03-08T13:26:10;17.75;;;10.45;;
84082;SDS011;74174;52.224;6.878;2024-03-08T13:28:46;19.65;;;11.93;;
84082;SDS011;74174;52.224;6.878;2024-03-08T13:31:14;20.17;;;11.68;;
84082;SDS011;74174;52.224;6.878;2024-03-08T13:33:40;19.30;;;11.02;;
84082;SDS011;74174;52.224;6.878;2024-03-08T13:36:07;19.77;;;10.88;;
84082;SDS011;74174;52.224;6.878;2024-03-08T13:38:47;20.88;;;12.40;;
84082;SDS011;74174;52.224;6.878;2024-03-08T13:41:13;21.45;;;11.73;;
84082;SDS011;74174;52.224;6.878;2024-03-08T13:43:41;21.02;;;10.48;;
84082;SDS011;74174;52.224;6.878;2024-03-08T13:46:08;20.70;;;10.88;;
84082;SDS011;74174;52.224;6.878;2024-03-08T13:48:35;22.35;;;11.40;;
84082;SDS011;74174;52.224;6.878;2024-03-08T13:51:16;20.48;;;10.80;;
84082;SDS011;74174;52.224;6.878;2024-03-08T13:53:42;20.25;;;11.57;;
84082;SDS011;74174;52.224;6.878;2024-03-08T13:56:08;19.70;;;11.00;;
84082;SDS011;74174;52.224;6.878;2024-03-08T13:58:35;19.40;;;11.48;;
84082;SDS011;74174;52.224;6.878;2024-03-08T14:01:01;18.42;;;9.93;;
84082;SDS011;74174;52.224;6.878;2024-03-08T14:03:28;19.88;;;10.75;;
84082;SDS011;74174;52.224;6.878;2024-03-08T14:05:54;19.35;;;10.15;;
84082;SDS011;74174;52.224;6.878;2024-03-08T14:08:20;20.55;;;10.57;;
84082;SDS011;74174;52.224;6.878;2024-03-08T14:10:46;20.95;;;10.88;;
84082;SDS011;74174;52.224;6.878;2024-03-08T14:13:14;18.33;;;9.43;;
84082;SDS011;74174;52.224;6.878;2024-03-08T14:15:42;20.80;;;11.73;;
84082;SDS011;74174;52.224;6.878;2024-03-08T14:18:09;19.55;;;10.55;;
84082;SDS011;74174;52.224;6.878;2024-03-08T14:20:35;19.90;;;11.15;;
84082;SDS011;74174;52.224;6.878;2024-03-08T14:23:00;18.77;;;10.43;;
84082;SDS011;74174;52.224;6.878;2024-03-08T14:25:27;22.45;;;11.80;;
84082;SDS011;74174;52.224;6.878;2024-03-08T14:27:54;20.27;;;10.95;;
84082;SDS011;74174;52.224;6.878;2024-03-08T14:30:23;21.60;;;11.35;;
84082;SDS011;74174;52.224;6.878;2024-03-08T14:33:03;20.48;;;11.80;;
84082;SDS011;74174;52.224;6.878;2024-03-08T14:35:40;24.27;;;12.30;;
84082;SDS011;74174;52.224;6.878;2024-03-08T14:38:07;22.63;;;12.20;;
84082;SDS011;74174;52.224;6.878;2024-03-08T14:40:36;22.95;;;11.55;;
84082;SDS011;74174;52.224;6.878;2024-03-08T14:43:02;25.73;;;12.50;;